createdAt,value
2023-03-18T00:28:11.985Z,14.63
2023-03-18T00:30:42.020Z,9.83
2023-03-18T00:33:11.083Z,16.30
2023-03-18T00:35:39.412Z,14.03
2023-03-18T00:38:09.017Z,10.83
2023-03-18T00:40:43.297Z,15.07
2023-03-18T00:43:12.702Z,14.17
2023-03-18T00:45:41.164Z,13.50
2023-03-18T00:48:08.972Z,10.00
2023-03-18T00:50:37.149Z,14.27
2023-03-18T00:53:04.680Z,11.97
2023-03-18T00:55:32.562Z,13.33
2023-03-18T00:57:59.618Z,9.83
2023-03-18T01:00:27.137Z,14.13
2023-03-18T01:02:55.106Z,11.27
2023-03-18T01:05:23.075Z,9.17
2023-03-18T01:07:50.062Z,13.93
2023-03-18T01:10:17.314Z,15.00
2023-03-18T01:12:48.539Z,11.97
2023-03-18T01:15:19.452Z,14.67
2023-03-18T01:17:46.979Z,12.03
2023-03-18T01:20:19.920Z,14.17
2023-03-18T01:22:46.986Z,12.77
2023-03-18T01:25:16.425Z,11.03
2023-03-18T01:27:44.470Z,15.07
2023-03-18T01:30:13.516Z,11.27
2023-03-18T01:32:41.663Z,11.67
2023-03-18T01:35:09.393Z,8.47
2023-03-18T01:53:11.880Z,12.13
2023-03-18T01:55:41.033Z,11.27
2023-03-18T01:58:20.063Z,11.03
2023-03-18T02:56:01.756Z,16.17
2023-03-18T02:58:29.138Z,10.40
2023-03-18T03:00:57.653Z,9.00
2023-03-18T03:56:29.118Z,7.53
2023-03-18T03:58:56.137Z,9.33
2023-03-18T04:57:19.817Z,6.87
2023-03-18T04:59:47.021Z,10.27
2023-03-18T05:02:14.488Z,7.77
2023-03-18T06:00:38.544Z,9.60
2023-03-18T06:03:05.950Z,4.63
2023-03-18T06:43:29.797Z,9.02
2023-03-18T07:04:00.716Z,6.38
2023-03-18T07:06:30.167Z,8.02
2023-03-18T08:55:51.886Z,10.00
2023-03-18T08:58:18.960Z,4.38
2023-03-18T09:12:25.353Z,8.18
2023-03-18T09:27:53.223Z,7.90
2023-03-18T09:58:01.462Z,8.63
2023-03-18T10:00:37.769Z,5.75
2023-03-18T10:22:42.090Z,5.47
2023-03-18T10:38:38.008Z,7.35
2023-03-18T10:41:36.606Z,6.22
2023-03-18T10:44:22.598Z,8.38
2023-03-18T10:47:19.868Z,8.75
2023-03-18T10:50:13.529Z,6.78
2023-03-18T10:52:58.783Z,7.05
2023-03-18T10:55:39.535Z,5.03
2023-03-18T10:58:19.506Z,9.35
2023-03-18T11:00:46.636Z,6.75
2023-03-18T11:03:37.334Z,8.70
2023-03-18T11:06:07.282Z,9.27
2023-03-18T11:08:40.075Z,5.50
2023-03-18T11:11:33.460Z,5.75
2023-03-18T11:14:04.285Z,6.47
2023-03-18T11:16:41.559Z,6.90
2023-03-18T11:19:32.846Z,6.05
2023-03-18T11:22:07.767Z,7.32
2023-03-18T11:24:44.989Z,6.13
2023-03-18T11:27:39.660Z,5.55
2023-03-18T11:30:40.768Z,7.22
2023-03-18T11:33:17.495Z,9.23
2023-03-18T11:36:05.011Z,8.20
2023-03-18T11:38:37.303Z,8.32
2023-03-18T11:41:27.768Z,6.82
2023-03-18T11:44:06.868Z,6.32
2023-03-18T11:46:46.094Z,7.00
2023-03-18T11:49:17.760Z,6.38
2023-03-18T11:52:07.062Z,7.07
2023-03-18T11:55:04.408Z,7.60
2023-03-18T11:57:33.997Z,7.75
2023-03-18T12:00:40.706Z,9.88
2023-03-18T12:03:33.049Z,8.40
2023-03-18T12:06:24.688Z,7.22
2023-03-18T12:09:00.969Z,6.57
2023-03-18T12:11:39.648Z,5.18
2023-03-18T12:14:44.746Z,12.00
2023-03-18T12:17:56.647Z,9.32
2023-03-18T12:20:47.145Z,9.43
2023-03-18T12:23:32.467Z,4.93
2023-03-18T12:26:12.451Z,9.05
2023-03-18T12:29:24.849Z,5.90
2023-03-18T12:32:15.530Z,12.05
2023-03-18T12:35:23.710Z,8.27
2023-03-18T12:56:51.066Z,7.70
2023-03-18T12:59:56.745Z,6.85
2023-03-18T13:02:47.235Z,6.45
2023-03-18T13:05:47.700Z,5.07
2023-03-18T13:08:52.242Z,6.95
2023-03-18T13:11:39.600Z,6.15
2023-03-18T13:14:35.727Z,9.93
2023-03-18T13:17:05.157Z,6.40
2023-03-18T13:19:34.968Z,11.23
2023-03-18T13:22:32.121Z,13.30
2023-03-18T13:25:29.645Z,7.32
2023-03-18T13:28:11.441Z,9.77
2023-03-18T14:00:40.500Z,8.75
2023-03-18T14:03:23.056Z,8.88
2023-03-18T14:18:45.513Z,6.75
2023-03-18T14:21:28.903Z,11.65
2023-03-18T14:51:58.695Z,13.48
2023-03-18T14:54:29.743Z,7.05
2023-03-18T14:56:58.007Z,7.93
2023-03-18T15:03:01.580Z,8.13
2023-03-18T15:05:36.177Z,9.48
2023-03-18T15:08:13.053Z,9.00
2023-03-18T15:19:32.802Z,7.53
2023-03-18T15:22:04.745Z,10.55
2023-03-18T15:30:37.092Z,10.80
2023-03-18T15:33:22.804Z,9.40
2023-03-18T16:04:07.621Z,8.73
2023-03-18T16:06:35.106Z,10.95
2023-03-18T16:30:05.179Z,14.60
2023-03-18T16:32:36.804Z,10.25
2023-03-18T16:35:03.941Z,12.70
2023-03-18T16:40:33.600Z,9.32
2023-03-18T16:43:00.623Z,11.90
2023-03-18T16:45:33.314Z,13.18
2023-03-18T16:48:06.727Z,10.52
2023-03-18T16:50:38.448Z,13.20
2023-03-18T16:53:31.893Z,12.27
2023-03-18T16:56:04.305Z,9.35
2023-03-18T16:58:35.440Z,12.88
2023-03-18T17:01:07.462Z,10.70
2023-03-18T17:03:36.613Z,14.15
2023-03-18T17:06:04.422Z,13.77
2023-03-18T17:08:31.549Z,11.23
2023-03-18T17:11:02.167Z,12.15
2023-03-18T17:13:34.023Z,11.13
2023-03-18T17:16:01.850Z,11.20
2023-03-18T17:18:28.909Z,11.40
2023-03-18T17:20:56.037Z,12.35
2023-03-18T17:23:28.713Z,11.50
2023-03-18T17:26:00.662Z,12.60
2023-03-18T17:28:36.351Z,11.95
2023-03-18T17:31:04.400Z,11.18
2023-03-18T17:33:35.525Z,10.50
2023-03-18T17:36:02.917Z,13.43
2023-03-18T17:38:35.105Z,9.95
2023-03-18T17:41:22.462Z,12.18
2023-03-18T17:43:49.763Z,9.38
2023-03-18T17:46:16.875Z,10.15
2023-03-18T17:48:44.084Z,10.32
2023-03-18T17:51:23.650Z,10.65
2023-03-18T17:53:59.621Z,12.80
2023-03-18T17:56:27.937Z,11.65
2023-03-18T17:58:55.319Z,12.65
2023-03-18T18:01:28.617Z,14.18
2023-03-18T18:03:57.869Z,12.80
2023-03-18T18:06:30.773Z,12.15
2023-03-18T18:09:00.290Z,9.88
2023-03-18T18:11:44.337Z,13.13
2023-03-18T18:14:25.948Z,12.93
2023-03-18T18:16:56.025Z,12.15
2023-03-18T18:19:24.393Z,17.73
2023-03-18T18:21:52.811Z,10.27
2023-03-18T18:24:25.926Z,14.70
2023-03-18T18:26:53.035Z,15.80
2023-03-18T18:29:23.728Z,14.77
2023-03-18T18:31:52.272Z,13.10
2023-03-18T18:34:21.287Z,15.63
2023-03-18T18:36:50.781Z,15.80
2023-03-18T18:39:18.257Z,14.75
2023-03-18T18:41:46.428Z,15.32
2023-03-18T18:44:14.188Z,15.73
2023-03-18T18:46:41.429Z,11.20
2023-03-18T18:49:24.313Z,19.58
2023-03-18T18:51:53.622Z,13.27
2023-03-18T18:54:23.073Z,15.00
2023-03-18T18:56:50.872Z,13.63
2023-03-18T18:59:23.320Z,13.50
2023-03-18T19:01:55.559Z,15.77
2023-03-18T19:04:23.760Z,17.60
2023-03-18T19:06:52.531Z,15.70
2023-03-18T19:09:26.055Z,14.68
2023-03-18T19:11:56.200Z,14.70
2023-03-18T19:14:28.950Z,22.13
2023-03-18T19:16:59.772Z,20.35
2023-03-18T19:19:32.433Z,18.40
2023-03-18T19:22:00.422Z,15.45
2023-03-18T19:24:31.965Z,16.83
2023-03-18T19:27:26.620Z,17.52
2023-03-18T19:29:58.624Z,19.83
2023-03-18T19:32:27.068Z,23.73
2023-03-18T19:34:54.992Z,18.13
2023-03-18T19:37:32.392Z,18.85
2023-03-18T19:40:02.309Z,18.85
2023-03-18T19:42:29.762Z,19.98
2023-03-18T19:44:57.311Z,18.33
2023-03-18T19:47:28.135Z,21.35
2023-03-18T19:49:55.437Z,17.98
2023-03-18T19:52:26.153Z,20.85
2023-03-18T19:54:55.177Z,19.23
2023-03-18T19:57:32.621Z,19.42
2023-03-18T20:00:04.911Z,25.77
2023-03-18T20:02:34.882Z,22.15
2023-03-18T20:05:14.412Z,17.02
2023-03-18T20:07:42.692Z,26.20
2023-03-18T20:10:12.222Z,19.08
2023-03-18T20:12:43.060Z,19.42
2023-03-18T20:15:24.751Z,21.33
2023-03-18T20:17:53.298Z,18.30
2023-03-18T20:20:24.193Z,21.90
2023-03-18T20:22:59.344Z,22.92
2023-03-18T20:25:41.111Z,21.20
2023-03-18T20:28:17.697Z,16.52
2023-03-18T20:30:46.231Z,24.08
2023-03-18T20:33:13.870Z,17.95
2023-03-18T20:35:44.128Z,20.83
2023-03-18T20:38:38.484Z,21.05
2023-03-18T20:41:11.373Z,22.00
2023-03-18T20:43:38.395Z,19.42
2023-03-18T20:46:05.789Z,18.13
2023-03-18T20:48:32.949Z,17.95
2023-03-18T20:50:59.964Z,19.75
2023-03-18T20:53:28.959Z,17.17
2023-03-18T20:55:56.888Z,19.23
2023-03-18T20:58:28.314Z,19.73
2023-03-18T21:00:55.677Z,25.90
2023-03-18T21:03:31.930Z,19.40
2023-03-18T21:06:02.446Z,18.17
2023-03-18T21:08:31.641Z,21.58
2023-03-18T21:11:01.981Z,18.85
2023-03-18T21:13:39.001Z,19.15
2023-03-18T21:16:13.062Z,20.27
2023-03-18T21:18:42.099Z,19.15
2023-03-18T21:21:28.911Z,20.80
2023-03-18T21:23:55.942Z,21.27
2023-03-18T21:26:23.813Z,23.52
2023-03-18T21:28:51.834Z,18.65
2023-03-18T21:31:26.869Z,23.55
2023-03-18T21:33:55.218Z,19.73
2023-03-18T21:36:22.531Z,18.67
2023-03-18T21:41:44.681Z,19.60
2023-03-18T21:44:12.461Z,18.08
2023-03-18T22:04:56.458Z,22.45
2023-03-18T22:07:24.934Z,18.60
2023-03-18T22:51:31.324Z,22.48
2023-03-18T22:53:58.595Z,21.50
2023-03-18T23:05:53.600Z,22.95
2023-03-18T23:08:21.748Z,25.92
2023-03-18T23:10:52.386Z,22.35
2023-03-18T23:13:35.839Z,20.80
2023-03-18T23:16:09.404Z,20.73
2023-03-18T23:18:37.560Z,26.15
2023-03-18T23:21:04.681Z,22.92
2023-03-18T23:23:32.049Z,28.27
2023-03-18T23:25:59.146Z,25.85
2023-03-18T23:28:26.173Z,24.70
2023-03-18T23:30:53.880Z,23.23
2023-03-18T23:36:24.891Z,23.77
2023-03-18T23:38:51.892Z,38.40
2023-03-18T23:41:18.918Z,24.83
2023-03-18T23:46:42.288Z,25.35
2023-03-18T23:52:11.944Z,23.88
2023-03-18T23:54:39.802Z,25.80
2023-03-18T23:57:09.708Z,27.55
